Stolt Ami — 3EAZ5 — position and weather

sailwx.info

Track history (hours):
 
Tides and Currents Weather Stations Pressure Air Temp Water Temp Dewpoint Dewpoint Depression Visibility Wind Speed Wind Dir Waves Ship Positions

Stolt Ami

Last reported at 2016-May-27 20:21 UTC. Time now 2016-May-28 11:48 UTC.
Position N 29°22' W 094°53'.

Length 143 m; draft 9.1 m.

Type: Ship (hazmat cat B). MMSI: 371392514.

Date/timePositionNaut miles runAvg speedWind from/ knotsBaromVisibWave heightAir tempDewpointWater temp
2016-May-27 20:21N 29°22' W 094°53'20 9.7
2016-May-27 18:15N 29°15' W 094°31'5 0.2
2016-May-26 09:33N 29°10' W 094°29'1312.6
2016-May-26 08:32N 29°19' W 094°39'1212.1
2016-May-26 07:33N 29°27' W 094°50'1313.3
2016-May-26 06:33N 29°38' W 094°58'10 9.7
2016-May-26 05:34N 29°46' W 095°05'  
2016-May-24 00:33N 29°45' W 095°06'5 4.7
2016-May-23 23:33N 29°43' W 095°01'1010.0
2016-May-23 22:33N 29°34' W 094°55'1111.5
2016-May-23 21:33N 29°24' W 094°49'  
Track history (hours):
 
Tides and Currents Weather Stations Pressure Air Temp Water Temp Dewpoint Dewpoint Depression Visibility Wind Speed Wind Dir Waves Ship Positions

Stolt Ami

Last reported at 2016-May-27 20:21 UTC. Time now 2016-May-28 11:48 UTC.
Position N 29°22' W 094°53'.

Length 143 m; draft 9.1 m.

Type: Ship (hazmat cat B). MMSI: 371392514.

Date/timePositionNaut miles runAvg speedWind from/ knotsBaromVisibWave heightAir tempDewpointWater temp
2016-May-27 20:21N 29°22' W 094°53'20 9.7
2016-May-27 18:15N 29°15' W 094°31'5 0.2
2016-May-26 09:33N 29°10' W 094°29'1312.6
2016-May-26 08:32N 29°19' W 094°39'1212.1
2016-May-26 07:33N 29°27' W 094°50'1313.3
2016-May-26 06:33N 29°38' W 094°58'10 9.7
2016-May-26 05:34N 29°46' W 095°05'  
2016-May-24 00:33N 29°45' W 095°06'5 4.7
2016-May-23 23:33N 29°43' W 095°01'1010.0
2016-May-23 22:33N 29°34' W 094°55'1111.5
2016-May-23 21:33N 29°24' W 094°49'  

Dump ship's entire track history